EET,Max TemperatureF,Mean TemperatureF,Min TemperatureF,Max Dew PointF,MeanDew PointF,Min DewpointF,Max Humidity, Mean Humidity, Min Humidity, Max Sea Level PressureIn, Mean Sea Level PressureIn, Min Sea Level PressureIn, Max VisibilityMiles, Mean VisibilityMiles, Min VisibilityMiles, Max Wind SpeedMPH, Mean Wind SpeedMPH, Max Gust SpeedMPH,PrecipitationIn, CloudCover, Events, WindDirDegrees
2013-1-1,34,25,16,23,17,10,86,73,47,30.18,30.16,30.12,7,6,4,8,5,,0.00,1,,50
2013-1-2,35,26,17,23,17,10,86,70,47,30.30,30.25,30.18,6,4,4,10,6,,0.00,1,,50
2013-1-3,35,26,16,25,18,14,93,77,54,30.30,30.26,30.21,6,5,4,7,5,,0.00,1,,62
2013-1-4,34,24,15,23,17,10,93,73,41,30.21,30.08,29.95,6,5,4,7,5,,0.00,2,,59
2013-1-5,38,29,20,25,20,14,86,68,43,29.95,29.82,29.71,6,6,5,10,4,,0.00,4,,70
2013-1-6,43,36,29,32,27,23,100,70,33,29.77,29.69,29.65,6,6,4,18,8,23,0.01,6,Snow,173
2013-1-7,44,38,31,32,25,18,93,61,23,29.65,29.55,29.50,7,6,6,28,10,39,0.01,6,Snow,168
2013-1-8,34,31,28,30,24,13,93,73,36,29.71,29.61,29.50,6,4,2,23,10,,0.01,6,Snow,197
2013-1-9,30,26,23,30,28,23,100,98,87,29.56,29.51,29.44,4,2,1,17,11,,0.31,8,Fog-Snow,163
2013-1-10,26,22,19,25,19,12,100,88,52,29.95,29.63,29.44,6,3,1,23,8,,0.28,6,Snow,111
2013-1-11,24,15,6,18,8,1,100,71,32,30.24,30.12,29.95,6,5,2,10,6,,0.00,3,Snow,131
2013-1-12,29,16,2,14,10,1,100,68,37,30.30,30.27,30.24,7,6,4,9,5,,0.08,3,,109
2013-1-13,36,22,8,23,19,7,93,74,55,30.27,30.16,30.12,6,5,4,9,5,,0.00,5,,102
2013-1-14,41,30,18,27,22,18,93,74,47,30.18,30.15,30.12,6,6,6,14,6,,0.00,3,,162
2013-1-15,34,20,6,19,9,-2,92,65,23,30.39,30.32,30.21,12,6,3,8,4,,0.00,2,,107
2013-1-16,31,17,3,16,7,0,100,74,51,30.39,30.34,30.24,6,4,4,6,4,,0.00,2,,78
2013-1-17,36,22,7,21,13,7,100,73,27,30.24,30.16,30.09,6,5,3,12,5,,0.00,5,,82
2013-1-18,39,26,14,25,19,14,93,78,49,30.18,30.15,30.12,6,4,2,7,4,,0.00,4,,69
2013-1-19,42,27,12,25,19,12,93,77,42,30.15,30.10,30.01,6,4,2,7,4,,0.00,4,,98
2013-1-20,42,30,19,32,27,21,93,78,58,30.06,30.01,29.95,5,4,4,17,7,,0.00,6,,31
2013-1-21,43,33,23,30,27,23,100,79,52,30.24,30.17,30.09,6,5,4,12,5,,0.00,5,,25
2013-1-22,36,28,21,30,26,21,100,88,72,30.24,30.19,30.12,6,4,2,6,4,,0.00,5,,111
2013-1-23,43,34,24,34,30,25,93,84,70,30.12,30.07,30.04,5,4,2,7,4,,0.00,6,Snow,133
2013-1-24,43,36,26,34,31,25,100,83,65,30.09,30.08,30.04,6,4,4,7,4,,0.00,6,,52
2013-1-25,41,32,24,32,27,23,87,76,62,30.06,30.01,29.95,6,5,4,9,5,,0.00,6,,69
2013-1-26,44,34,25,34,28,18,100,70,33,30.12,30.06,30.01,6,4,2,12,4,,0.00,6,,180
2013-1-27,46,39,32,36,31,21,100,76,33,30.06,29.95,29.83,6,5,2,22,9,,0.35,7,Rain-Snow,161
2013-1-28,39,32,26,34,30,25,100,87,66,30.01,29.93,29.80,5,4,2,7,4,,0.16,6,Snow,98
2013-1-29,38,35,32,36,32,30,100,95,76,29.77,29.66,29.56,5,2,1,18,4,,0.24,8,Fog-Rain-Snow,253
2013-1-30,43,34,26,32,27,19,100,78,52,29.89,29.84,29.77,6,5,4,16,6,,0.12,5,Snow,159
2013-1-31,41,34,28,27,23,19,80,64,39,29.80,29.69,29.62,6,6,2,10,5,,0.00,6,,60